PWSweather.com
Personal Weather Stations
Station Observations
MAKAWAOWX1
Up Country Maui, Makawao, HI 96768

Up Country MauiMakawao, HI 96768

Lat: 20.856944, Lon: -156.3149667

Elevation: 1500

Station Type: Davis Vantage Pro

www.dwayneyamato@hawaiiantel.net

High Low Average
Temperature 85.1°F29.5°C 69.5°F20.8°C 76.0°F24.4°C
Dew Point 75.9°F24.4°C 67.6°F19.8°C 71.5°F21.9°C
Winds Calm Calm Calm Calm Calm ECalm E
Wind Gusts -- -- --
Humidity 95% 73% 86%
Pressure 29.98 in1015.2 mb 29.85 in1010.8 mb -
Precipitation 0.00 in0.0 mm - -
Hour Temp Dew Point Humidity Winds Wind Gusts Pressure Precip Precip Rate Daily Precip Total
12:00 AM 72.2°F22.3°C 69.7°F20.9°C 92% Calm Calm -- 29.86 in1011.2 mb - 0.00 in0.0 mm 0.00 in0.0 mm
01:00 AM 71.7°F22.1°C 69.6°F20.9°C 93% Calm Calm -- 29.86 in1011.2 mb - 0.00 in0.0 mm 0.00 in0.0 mm
02:00 AM 70.2°F21.2°C 68.1°F20.1°C 93% Calm Calm -- 29.85 in1010.8 mb - 0.00 in0.0 mm 0.00 in0.0 mm
03:00 AM 71.7°F22.1°C 69.9°F21.1°C 94% Calm Calm -- 29.85 in1010.8 mb - 0.00 in0.0 mm 0.00 in0.0 mm
04:00 AM 70.6°F21.4°C 68.5°F20.3°C 93% Calm Calm -- 29.85 in1010.8 mb - 0.00 in0.0 mm 0.00 in0.0 mm
05:00 AM 69.7°F20.9°C 67.6°F19.8°C 93% Calm Calm -- 29.86 in1011.2 mb - 0.00 in0.0 mm 0.00 in0.0 mm
06:00 AM 69.5°F20.8°C 67.7°F19.8°C 94% Calm Calm -- 29.88 in1011.9 mb - 0.00 in0.0 mm 0.00 in0.0 mm
07:00 AM 69.7°F20.9°C 68.2°F20.1°C 95% Calm Calm -- 29.90 in1012.5 mb - 0.00 in0.0 mm 0.00 in0.0 mm
08:00 AM 75.1°F23.9°C 72.0°F22.2°C 90% Calm Calm -- 29.90 in1012.5 mb - 0.00 in0.0 mm 0.00 in0.0 mm
09:00 AM 80.3°F26.8°C 73.2°F22.9°C 79% Calm Calm -- 29.91 in1012.9 mb - 0.00 in0.0 mm 0.00 in0.0 mm
10:00 AM 81.1°F27.3°C 74.7°F23.7°C 81% Calm Calm -- 29.93 in1013.5 mb - 0.00 in0.0 mm 0.00 in0.0 mm
11:00 AM 82.0°F27.8°C 74.1°F23.4°C 77% Calm Calm -- 29.92 in1013.2 mb - 0.00 in0.0 mm 0.00 in0.0 mm
12:00 PM 80.9°F27.2°C 74.1°F23.4°C 80% Calm Calm -- 29.92 in1013.2 mb - 0.00 in0.0 mm 0.00 in0.0 mm
01:00 PM 78.9°F26.1°C 74.0°F23.3°C 85% Calm Calm -- 29.91 in1012.9 mb - 0.00 in0.0 mm 0.00 in0.0 mm
02:00 PM 81.9°F27.7°C 75.9°F24.4°C 82% Calm Calm -- 29.89 in1012.2 mb - 0.00 in0.0 mm 0.00 in0.0 mm
03:00 PM 85.1°F29.5°C 75.5°F24.2°C 73% Calm Calm -- 29.89 in1012.2 mb - 0.00 in0.0 mm 0.00 in0.0 mm
04:00 PM 82.8°F28.2°C 74.5°F23.6°C 76% Calm Calm -- 29.89 in1012.2 mb - 0.00 in0.0 mm 0.00 in0.0 mm
05:00 PM 81.5°F27.5°C 74.7°F23.7°C 80% Calm Calm -- 29.89 in1012.2 mb - 0.00 in0.0 mm 0.00 in0.0 mm
06:00 PM 80.1°F26.7°C 73.4°F23.0°C 80% Calm Calm -- 29.90 in1012.5 mb - 0.00 in0.0 mm 0.00 in0.0 mm
07:00 PM 77.4°F25.2°C 70.8°F21.6°C 80% Calm Calm -- 29.92 in1013.2 mb - 0.00 in0.0 mm 0.00 in0.0 mm
08:00 PM 75.1°F23.9°C 71.0°F21.7°C 87% Calm Calm -- 29.94 in1013.9 mb - 0.00 in0.0 mm 0.00 in0.0 mm
09:00 PM 73.1°F22.8°C 70.3°F21.3°C 91% Calm Calm -- 29.96 in1014.6 mb - 0.00 in0.0 mm 0.00 in0.0 mm
10:00 PM 72.0°F22.2°C 69.5°F20.8°C 92% Calm Calm -- 29.98 in1015.2 mb - 0.00 in0.0 mm 0.00 in0.0 mm
11:00 PM 70.8°F21.6°C 68.7°F20.4°C 93% Calm Calm -- 29.98 in1015.2 mb - 0.00 in0.0 mm 0.00 in0.0 mm